createdAt,value
2023-06-19T00:02:29.917Z,6.00
2023-06-19T00:05:02.358Z,6.22
2023-06-19T00:07:35.954Z,5.22
2023-06-19T00:10:08.559Z,5.47
2023-06-19T00:12:40.846Z,5.32
2023-06-19T00:15:13.760Z,4.95
2023-06-19T00:17:46.147Z,5.55
2023-06-19T00:20:19.241Z,5.15
2023-06-19T00:22:53.142Z,6.10
2023-06-19T00:25:25.319Z,5.68
2023-06-19T00:27:57.558Z,5.32
2023-06-19T00:30:34.019Z,5.32
2023-06-19T00:33:06.949Z,5.55
2023-06-19T00:35:39.135Z,5.35
2023-06-19T00:38:11.420Z,5.50
2023-06-19T00:40:43.760Z,5.63
2023-06-19T00:43:16.034Z,5.63
2023-06-19T00:45:48.336Z,5.88
2023-06-19T00:48:21.242Z,6.07
2023-06-19T00:50:53.720Z,5.45
2023-06-19T00:53:26.716Z,5.90
2023-06-19T00:56:00.962Z,6.15
2023-06-19T00:58:34.007Z,5.75
2023-06-19T01:01:09.168Z,6.15
2023-06-19T01:03:42.943Z,5.80
2023-06-19T01:06:23.204Z,6.38
2023-06-19T01:11:49.065Z,5.72
2023-06-19T01:14:38.094Z,6.30
2023-06-19T01:17:11.413Z,6.15
2023-06-19T01:19:43.893Z,5.97
2023-06-19T01:22:32.577Z,6.40
2023-06-19T01:25:06.846Z,6.13
2023-06-19T01:27:39.581Z,6.07
2023-06-19T01:30:14.572Z,6.03
2023-06-19T01:33:30.024Z,6.07
2023-06-19T01:36:04.729Z,7.03
2023-06-19T01:38:38.424Z,6.75
2023-06-19T01:41:12.332Z,6.18
2023-06-19T01:43:46.631Z,6.60
2023-06-19T01:46:21.901Z,6.10
2023-06-19T01:48:54.943Z,5.53
2023-06-19T01:51:27.416Z,6.30
2023-06-19T01:53:59.713Z,6.80
2023-06-19T01:56:32.205Z,6.13
2023-06-19T01:59:04.573Z,5.78
2023-06-19T02:01:37.202Z,6.03
2023-06-19T02:04:09.458Z,5.57
2023-06-19T02:06:41.622Z,5.95
2023-06-19T02:09:13.812Z,5.75
2023-06-19T02:11:46.058Z,5.57
2023-06-19T02:14:19.001Z,6.00
2023-06-19T02:16:51.259Z,6.18
2023-06-19T02:19:23.479Z,5.72
2023-06-19T02:21:55.762Z,6.07
2023-06-19T02:24:28.068Z,6.15
2023-06-19T02:27:00.568Z,5.88
2023-06-19T02:29:35.221Z,6.10
2023-06-19T02:32:07.719Z,6.60
2023-06-19T02:34:39.943Z,5.75
2023-06-19T02:37:12.129Z,6.78
2023-06-19T02:39:44.316Z,6.20
2023-06-19T02:42:16.688Z,6.32
2023-06-19T02:44:48.939Z,5.72
2023-06-19T02:47:21.140Z,6.63
2023-06-19T02:49:53.292Z,6.80
2023-06-19T02:52:25.852Z,6.32
2023-06-19T02:54:58.007Z,6.20
2023-06-19T02:57:30.262Z,6.72
2023-06-19T03:00:02.471Z,5.97
2023-06-19T03:02:34.745Z,7.22
2023-06-19T03:05:07.393Z,6.85
2023-06-19T03:07:39.506Z,7.45
2023-06-19T03:10:11.662Z,6.68
2023-06-19T03:12:43.862Z,6.38
2023-06-19T03:15:16.106Z,6.90
2023-06-19T03:17:48.887Z,7.22
2023-06-19T03:20:22.190Z,6.57
2023-06-19T03:22:54.668Z,6.55
2023-06-19T03:25:26.886Z,6.38
2023-06-19T03:27:59.053Z,6.50
2023-06-19T03:30:31.923Z,6.55
2023-06-19T03:33:04.094Z,6.20
2023-06-19T03:35:36.318Z,7.10
2023-06-19T03:38:08.476Z,6.78
2023-06-19T03:40:40.762Z,6.88
2023-06-19T03:43:13.136Z,6.72
2023-06-19T03:45:45.394Z,6.60
2023-06-19T03:48:18.764Z,7.35
2023-06-19T03:50:50.848Z,6.75
2023-06-19T03:53:23.859Z,7.28
2023-06-19T03:55:56.939Z,7.40
2023-06-19T03:58:29.094Z,7.20
2023-06-19T04:01:01.227Z,6.82
2023-06-19T04:03:33.650Z,7.90
2023-06-19T04:06:05.880Z,6.90
2023-06-19T04:08:38.262Z,7.05
2023-06-19T04:11:10.445Z,7.18
2023-06-19T04:13:42.860Z,6.93
2023-06-19T04:16:15.074Z,6.65
2023-06-19T04:18:47.297Z,7.57
2023-06-19T04:21:19.990Z,7.25
2023-06-19T04:23:52.175Z,6.78
2023-06-19T04:26:25.795Z,6.75
2023-06-19T04:54:03.440Z,7.10
2023-06-19T05:02:05.380Z,7.28
2023-06-19T05:48:01.632Z,8.95
2023-06-19T06:06:45.738Z,7.45
2023-06-19T06:13:22.754Z,7.47
2023-06-19T06:15:59.588Z,7.05
2023-06-19T06:21:55.066Z,7.38
2023-06-19T06:24:30.683Z,7.65
2023-06-19T06:27:34.004Z,7.22
2023-06-19T06:30:07.566Z,7.80
2023-06-19T06:32:44.069Z,7.97
2023-06-19T06:35:18.175Z,7.85
2023-06-19T06:37:51.305Z,7.57
2023-06-19T06:40:42.917Z,8.30
2023-06-19T06:43:16.436Z,7.03
2023-06-19T06:45:49.141Z,9.05
2023-06-19T06:48:22.158Z,7.65
2023-06-19T06:51:02.499Z,7.35
2023-06-19T06:53:34.820Z,7.68
2023-06-19T06:56:33.865Z,7.43
2023-06-19T06:59:06.172Z,7.40
2023-06-19T07:01:38.717Z,7.65
2023-06-19T07:04:19.490Z,7.70
2023-06-19T07:06:52.204Z,7.30
2023-06-19T07:09:24.416Z,7.10
2023-06-19T07:11:58.609Z,7.20
2023-06-19T07:14:31.234Z,6.72
2023-06-19T07:17:04.212Z,8.07
2023-06-19T07:19:40.899Z,6.57
2023-06-19T07:22:13.597Z,6.95
2023-06-19T07:24:45.908Z,7.28
2023-06-19T07:27:18.782Z,9.38
2023-06-19T07:29:50.957Z,7.65
2023-06-19T07:32:25.089Z,7.93
2023-06-19T07:34:57.399Z,7.05
2023-06-19T07:37:30.734Z,6.53
2023-06-19T07:40:22.825Z,6.80
2023-06-19T07:42:58.108Z,7.20
2023-06-19T07:45:37.870Z,5.72
2023-06-19T07:48:11.836Z,5.22
2023-06-19T07:50:45.197Z,5.55
2023-06-19T07:53:17.764Z,5.20
2023-06-19T07:55:52.896Z,5.07
2023-06-19T07:59:18.518Z,5.68
2023-06-19T08:01:41.795Z,6.07
2023-06-19T08:04:24.983Z,5.38
2023-06-19T08:07:07.714Z,5.47
2023-06-19T08:09:43.139Z,4.68
2023-06-19T08:12:25.261Z,5.20
2023-06-19T08:14:58.190Z,5.13
2023-06-19T08:17:47.002Z,4.57
2023-06-19T08:20:21.311Z,5.20
2023-06-19T08:22:54.201Z,5.60
2023-06-19T08:25:29.879Z,5.07
2023-06-19T08:28:02.169Z,4.97
2023-06-19T08:30:34.527Z,5.22
2023-06-19T08:33:19.362Z,5.40
2023-06-19T08:35:51.592Z,5.18
2023-06-19T08:38:24.151Z,5.22
2023-06-19T08:40:56.852Z,6.43
2023-06-19T08:43:29.484Z,8.27
2023-06-19T08:46:40.661Z,6.35
2023-06-19T08:49:14.343Z,6.30
2023-06-19T08:51:46.705Z,6.32
2023-06-19T08:54:49.683Z,9.50
2023-06-19T08:57:46.719Z,5.43
2023-06-19T09:00:31.470Z,4.88
2023-06-19T09:03:14.746Z,5.85
2023-06-19T09:05:51.894Z,5.70
2023-06-19T09:08:33.049Z,5.68
2023-06-19T09:12:34.977Z,5.72
2023-06-19T09:14:56.207Z,5.70
2023-06-19T09:17:35.195Z,5.07
2023-06-19T09:20:10.675Z,4.90
2023-06-19T09:22:45.788Z,4.30
2023-06-19T09:25:34.919Z,4.97
2023-06-19T09:28:24.456Z,4.68
2023-06-19T09:31:04.921Z,4.80
2023-06-19T09:33:38.565Z,3.80
2023-06-19T09:36:47.460Z,5.05
2023-06-19T09:39:24.772Z,3.80
2023-06-19T09:42:02.838Z,3.60
2023-06-19T09:52:23.653Z,3.10
2023-06-19T09:55:04.166Z,2.95
2023-06-19T09:57:40.570Z,2.65
2023-06-19T10:00:42.956Z,2.55
2023-06-19T10:07:07.903Z,2.78
2023-06-19T10:32:00.236Z,3.20
2023-06-19T10:35:00.152Z,3.38
2023-06-19T10:37:40.684Z,3.53
2023-06-19T10:43:07.815Z,3.75
2023-06-19T10:45:41.637Z,3.85
2023-06-19T10:48:35.465Z,4.65
2023-06-19T10:51:10.380Z,5.30
2023-06-19T10:54:33.544Z,4.60
2023-06-19T11:00:49.869Z,4.35
2023-06-19T11:03:31.950Z,5.85
2023-06-19T11:06:32.655Z,7.70
2023-06-19T11:09:11.169Z,9.02
2023-06-19T11:15:44.605Z,8.60
2023-06-19T11:18:19.122Z,8.40
2023-06-19T11:20:53.736Z,6.47
2023-06-19T11:23:31.912Z,6.18
2023-06-19T11:26:08.652Z,5.78
2023-06-19T11:28:41.132Z,4.72
2023-06-19T11:31:13.355Z,3.90
2023-06-19T11:33:45.696Z,4.78
2023-06-19T11:36:19.707Z,3.95
2023-06-19T11:38:53.934Z,5.05
2023-06-19T11:41:30.230Z,4.00
2023-06-19T11:44:07.908Z,3.65
2023-06-19T11:46:40.492Z,4.68
2023-06-19T11:49:19.484Z,5.07
2023-06-19T11:51:51.841Z,6.23
2023-06-19T11:54:24.154Z,4.90
2023-06-19T11:56:56.722Z,4.70
2023-06-19T11:59:31.963Z,5.03
2023-06-19T12:02:04.448Z,5.15
2023-06-19T12:04:37.418Z,5.30
2023-06-19T12:07:10.294Z,6.80
2023-06-19T12:09:44.781Z,7.20
2023-06-19T12:12:17.023Z,9.40
2023-06-19T12:14:49.308Z,8.02
2023-06-19T12:17:27.600Z,9.02
2023-06-19T12:20:00.350Z,8.75
2023-06-19T12:22:34.220Z,8.90
2023-06-19T12:25:06.703Z,6.40
2023-06-19T12:27:40.202Z,5.43
2023-06-19T12:30:13.150Z,5.95
2023-06-19T12:32:45.581Z,5.78
2023-06-19T12:35:18.125Z,6.57
2023-06-19T12:37:50.434Z,6.13
2023-06-19T12:40:23.144Z,5.68
2023-06-19T12:42:55.736Z,5.45
2023-06-19T12:45:28.156Z,5.57
2023-06-19T12:48:00.547Z,4.88
2023-06-19T12:50:32.906Z,5.22
2023-06-19T12:53:05.240Z,4.05
2023-06-19T12:55:48.788Z,4.72
2023-06-19T12:58:29.846Z,4.03
2023-06-19T13:01:03.151Z,5.28
2023-06-19T13:03:35.416Z,3.90
2023-06-19T13:06:07.744Z,4.55
2023-06-19T13:08:39.970Z,3.90
2023-06-19T13:11:12.219Z,4.35
2023-06-19T13:13:48.706Z,4.40
2023-06-19T13:16:41.024Z,4.43
2023-06-19T13:19:17.533Z,5.78
2023-06-19T13:21:49.887Z,4.05
2023-06-19T13:24:22.248Z,4.07
2023-06-19T13:26:55.667Z,3.95
2023-06-19T13:29:28.053Z,4.53
2023-06-19T13:32:00.419Z,5.28
2023-06-19T13:34:32.702Z,4.43
2023-06-19T13:37:05.390Z,5.10
2023-06-19T13:39:37.698Z,4.85
2023-06-19T13:42:10.406Z,5.57
2023-06-19T13:44:42.799Z,4.22
2023-06-19T13:47:15.368Z,4.90
2023-06-19T13:49:47.626Z,4.28
2023-06-19T13:52:20.247Z,4.43
2023-06-19T13:54:54.737Z,4.72
2023-06-19T13:57:28.489Z,4.70
2023-06-19T14:00:00.850Z,4.05
2023-06-19T14:02:33.208Z,4.00
2023-06-19T14:05:10.623Z,5.28
2023-06-19T14:07:44.169Z,4.35
2023-06-19T14:10:16.508Z,3.78
2023-06-19T14:12:48.820Z,4.10
2023-06-19T14:15:22.914Z,4.43
2023-06-19T14:17:55.471Z,4.07
2023-06-19T14:20:27.972Z,4.15
2023-06-19T14:23:00.400Z,4.15
2023-06-19T14:25:32.839Z,3.63
2023-06-19T14:28:08.477Z,3.80
2023-06-19T14:30:40.767Z,3.38
2023-06-19T14:33:16.511Z,4.28
2023-06-19T14:35:51.460Z,4.28
2023-06-19T14:38:29.261Z,4.22
2023-06-19T14:41:04.933Z,3.95
2023-06-19T14:43:37.426Z,3.90
2023-06-19T14:46:10.481Z,4.22
2023-06-19T14:48:42.970Z,4.32
2023-06-19T14:51:20.965Z,5.30
2023-06-19T14:53:53.390Z,5.13
2023-06-19T14:56:25.848Z,4.82
2023-06-19T14:58:58.368Z,4.75
2023-06-19T15:01:39.449Z,4.72
2023-06-19T15:04:12.122Z,4.50
2023-06-19T15:06:49.286Z,4.55
2023-06-19T15:09:21.855Z,3.83
2023-06-19T15:11:54.162Z,4.28
2023-06-19T15:14:26.696Z,4.32
2023-06-19T15:16:59.130Z,3.95
2023-06-19T15:19:32.029Z,3.85
2023-06-19T15:22:04.702Z,4.22
2023-06-19T15:24:38.046Z,3.78
2023-06-19T15:27:10.638Z,3.55
2023-06-19T15:29:43.281Z,3.38
2023-06-19T15:32:15.636Z,3.95
2023-06-19T15:34:48.008Z,4.15
2023-06-19T15:37:20.563Z,4.18
2023-06-19T15:39:56.139Z,4.65
2023-06-19T15:42:31.886Z,4.30
2023-06-19T15:45:05.913Z,3.95
2023-06-19T15:47:38.657Z,4.25
2023-06-19T15:50:11.731Z,4.53
2023-06-19T15:52:44.220Z,5.10
2023-06-19T15:55:16.652Z,5.07
2023-06-19T15:57:49.005Z,4.97
2023-06-19T16:00:21.603Z,5.28
2023-06-19T16:02:54.129Z,4.50
2023-06-19T16:05:27.317Z,5.15
2023-06-19T16:07:59.775Z,5.00
2023-06-19T16:10:32.241Z,5.05
2023-06-19T16:13:04.825Z,4.68
2023-06-19T16:15:37.139Z,5.22
2023-06-19T16:18:09.810Z,6.20
2023-06-19T16:20:42.200Z,5.43
2023-06-19T16:23:14.710Z,5.07
2023-06-19T16:25:47.175Z,4.80
2023-06-19T16:28:20.024Z,5.25
2023-06-19T16:51:14.099Z,5.18
2023-06-19T17:40:27.042Z,4.90
2023-06-19T18:04:20.374Z,6.10
2023-06-19T18:08:28.621Z,5.72
2023-06-19T18:20:00.372Z,6.15
2023-06-19T18:44:02.459Z,5.40
